Time,TemperatureF,DewpointF,PressureIn,WindDirection,WindDirectionDegrees,WindSpeedMPH,WindSpeedGustMPH,Humidity,HourlyPrecipIn,Conditions,Clouds,dailyrainin,SoftwareType,DateUTC
2013-06-12 00:00:00,65.1,63.0,30.00,SW,229,0.0,0.0,93,0.00,,,0.01,Wunderground v.1.15,2013-06-12 04:00:00,
2013-06-12 00:05:00,64.9,62.8,30.00,SW,229,0.0,0.0,93,0.00,,,0.00,Wunderground v.1.15,2013-06-12 04:05:00,
2013-06-12 00:10:00,64.8,62.7,30.00,SW,229,0.0,0.0,93,0.00,,,0.00,Wunderground v.1.15,2013-06-12 04:10:00,
2013-06-12 00:15:00,64.7,62.6,30.01,SW,229,0.0,0.0,93,0.00,,,0.00,Wunderground v.1.15,2013-06-12 04:15:00,
2013-06-12 00:25:00,64.5,62.4,30.01,SW,229,0.0,0.0,93,0.00,,,0.00,Wunderground v.1.15,2013-06-12 04:25:00,
2013-06-12 00:30:00,64.4,62.6,30.01,SW,229,0.0,0.0,94,0.00,,,0.00,Wunderground v.1.15,2013-06-12 04:30:00,
2013-06-12 00:35:00,64.3,62.5,30.00,SW,229,0.0,0.0,94,0.00,,,0.00,Wunderground v.1.15,2013-06-12 04:35:00,
2013-06-12 00:40:00,64.1,62.3,30.00,SW,229,0.0,0.0,94,0.00,,,0.00,Wunderground v.1.15,2013-06-12 04:40:00,
2013-06-12 00:45:00,64.1,62.3,30.01,SW,229,0.0,0.0,94,0.00,,,0.00,Wunderground v.1.15,2013-06-12 04:45:00,
2013-06-12 00:49:00,64.1,62.6,30.01,SW,229,0.0,0.0,95,0.00,,,0.00,Wunderground v.1.15,2013-06-12 04:49:00,
2013-06-12 00:55:00,63.9,62.1,30.01,SW,229,0.0,0.0,94,0.00,,,0.00,Wunderground v.1.15,2013-06-12 04:55:00,
2013-06-12 01:00:00,63.8,62.0,30.01,SW,229,0.0,0.0,94,0.00,,,0.00,Wunderground v.1.15,2013-06-12 05:00:00,
2013-06-12 01:05:00,63.7,61.9,30.01,SW,229,0.0,0.0,94,0.00,,,0.00,Wunderground v.1.15,2013-06-12 05:05:00,
2013-06-12 01:10:00,63.6,62.1,30.01,SW,229,0.0,0.0,95,0.00,,,0.00,Wunderground v.1.15,2013-06-12 05:10:00,
2013-06-12 01:15:00,63.5,62.0,30.01,SW,229,0.0,0.0,95,0.00,,,0.00,Wunderground v.1.15,2013-06-12 05:15:00,
2013-06-12 01:25:00,63.2,61.7,30.00,SW,229,0.0,0.0,95,0.00,,,0.00,Wunderground v.1.15,2013-06-12 05:25:00,
2013-06-12 01:30:00,63.1,61.6,30.00,SW,229,0.0,0.0,95,0.00,,,0.00,Wunderground v.1.15,2013-06-12 05:30:00,
2013-06-12 01:40:00,63.0,61.5,30.00,SW,229,0.0,0.0,95,0.00,,,0.00,Wunderground v.1.15,2013-06-12 05:40:00,
2013-06-12 01:45:00,62.9,61.4,30.00,SW,229,0.0,0.0,95,0.00,,,0.00,Wunderground v.1.15,2013-06-12 05:45:00,
2013-06-12 01:49:00,62.8,61.3,30.00,SW,229,0.0,0.0,95,0.00,,,0.00,Wunderground v.1.15,2013-06-12 05:49:00,
2013-06-12 01:55:00,62.7,61.2,29.99,SW,229,0.0,0.0,95,0.00,,,0.00,Wunderground v.1.15,2013-06-12 05:55:00,
2013-06-12 02:00:00,62.6,61.4,29.99,SW,229,0.0,0.0,96,0.00,,,0.00,Wunderground v.1.15,2013-06-12 06:00:00,
2013-06-12 02:05:00,62.5,61.3,29.99,SW,229,0.0,0.0,96,0.00,,,0.00,Wunderground v.1.15,2013-06-12 06:05:00,
2013-06-12 02:10:00,62.5,61.3,30.00,SW,229,0.0,0.0,96,0.00,,,0.00,Wunderground v.1.15,2013-06-12 06:10:00,
2013-06-12 02:15:00,62.4,61.2,30.00,SW,229,0.0,0.0,96,0.00,,,0.00,Wunderground v.1.15,2013-06-12 06:15:00,
2013-06-12 02:20:00,62.3,61.1,30.00,SW,229,0.0,0.0,96,0.00,,,0.00,Wunderground v.1.15,2013-06-12 06:20:00,
2013-06-12 02:25:00,62.2,61.0,30.00,SW,229,0.0,0.0,96,0.00,,,0.00,Wunderground v.1.15,2013-06-12 06:25:00,
2013-06-12 02:30:00,62.2,61.0,30.00,SW,229,0.0,0.0,96,0.00,,,0.00,Wunderground v.1.15,2013-06-12 06:30:00,
2013-06-12 02:34:00,62.1,60.9,30.00,SW,229,0.0,0.0,96,0.00,,,0.00,Wunderground v.1.15,2013-06-12 06:34:00,
2013-06-12 02:40:00,62.1,61.2,30.00,SW,229,0.0,0.0,97,0.00,,,0.00,Wunderground v.1.15,2013-06-12 06:40:00,
2013-06-12 02:45:00,62.1,61.2,30.00,SW,229,0.0,0.0,97,0.00,,,0.00,Wunderground v.1.15,2013-06-12 06:45:00,
2013-06-12 02:50:00,62.1,61.2,30.00,SW,229,0.0,0.0,97,0.00,,,0.00,Wunderground v.1.15,2013-06-12 06:50:00,
2013-06-12 02:55:00,62.0,61.1,30.00,SW,229,0.0,0.0,97,0.00,,,0.00,Wunderground v.1.15,2013-06-12 06:55:00,
2013-06-12 03:05:00,61.8,60.9,29.99,SW,229,0.0,0.0,97,0.00,,,0.00,Wunderground v.1.15,2013-06-12 07:05:00,
2013-06-12 03:15:00,61.8,60.9,29.98,SW,229,0.0,0.0,97,0.00,,,0.00,Wunderground v.1.15,2013-06-12 07:15:00,
2013-06-12 03:20:00,61.7,60.8,29.98,SW,229,0.0,0.0,97,0.00,,,0.00,Wunderground v.1.15,2013-06-12 07:20:00,
2013-06-12 03:25:00,61.6,60.7,29.98,SW,229,0.0,0.0,97,0.00,,,0.00,Wunderground v.1.15,2013-06-12 07:25:00,
2013-06-12 03:30:00,61.6,60.7,29.98,SW,229,0.0,0.0,97,0.00,,,0.00,Wunderground v.1.15,2013-06-12 07:30:00,
2013-06-12 03:35:00,61.5,60.6,29.98,SW,229,0.0,0.0,97,0.00,,,0.00,Wunderground v.1.15,2013-06-12 07:35:00,
2013-06-12 03:40:00,61.5,60.6,29.98,SW,229,0.0,0.0,97,0.00,,,0.00,Wunderground v.1.15,2013-06-12 07:40:00,
2013-06-12 03:50:00,61.3,60.4,29.98,SW,229,0.0,0.0,97,0.00,,,0.00,Wunderground v.1.15,2013-06-12 07:50:00,
2013-06-12 04:00:00,61.3,60.4,29.98,SW,229,0.0,0.0,97,0.00,,,0.00,Wunderground v.1.15,2013-06-12 08:00:00,
2013-06-12 04:05:00,-999.9,-99.9,29.99,North,32767,-999.0,0.0,255,-99.99,,,0.00,Wunderground v.1.15,2013-06-12 08:05:00,
2013-06-12 04:10:00,-999.9,-99.9,29.99,North,32767,-999.0,0.0,255,-99.99,,,0.00,Wunderground v.1.15,2013-06-12 08:10:00,
2013-06-12 04:15:00,-999.9,-99.9,29.98,North,32767,-999.0,0.0,255,-99.99,,,0.00,Wunderground v.1.15,2013-06-12 08:15:00,
2013-06-12 04:25:00,-999.9,-99.9,29.98,North,32767,-999.0,0.0,255,-99.99,,,0.00,Wunderground v.1.15,2013-06-12 08:25:00,
2013-06-12 04:30:00,-999.9,-99.9,29.98,North,32767,-999.0,0.0,255,-99.99,,,0.00,Wunderground v.1.15,2013-06-12 08:30:00,
2013-06-12 04:35:00,-999.9,-99.9,29.98,North,32767,-999.0,0.0,255,-99.99,,,0.00,Wunderground v.1.15,2013-06-12 08:35:00,
2013-06-12 04:40:00,-999.9,-99.9,29.98,North,32767,-999.0,0.0,255,-99.99,,,0.00,Wunderground v.1.15,2013-06-12 08:40:00,
2013-06-12 04:45:00,-999.9,-99.9,29.98,North,32767,-999.0,0.0,255,-99.99,,,0.00,Wunderground v.1.15,2013-06-12 08:45:00,
2013-06-12 04:50:00,-999.9,-99.9,29.98,North,32767,-999.0,0.0,255,-99.99,,,0.00,Wunderground v.1.15,2013-06-12 08:50:00,
2013-06-12 04:55:00,-999.9,-99.9,29.98,North,32767,-999.0,0.0,255,-99.99,,,0.00,Wunderground v.1.15,2013-06-12 08:55:00,
2013-06-12 05:00:00,-999.9,-99.9,29.98,North,32767,-999.0,0.0,255,-99.99,,,0.00,Wunderground v.1.15,2013-06-12 09:00:00,
2013-06-12 05:05:00,-999.9,-99.9,29.98,North,32767,-999.0,0.0,255,-99.99,,,0.00,Wunderground v.1.15,2013-06-12 09:05:00,
2013-06-12 05:10:00,-999.9,-99.9,29.98,North,32767,-999.0,0.0,255,-99.99,,,0.00,Wunderground v.1.15,2013-06-12 09:10:00,
2013-06-12 05:15:00,-999.9,-99.9,29.98,North,32767,-999.0,0.0,255,-99.99,,,0.00,Wunderground v.1.15,2013-06-12 09:15:00,
2013-06-12 05:20:00,-999.9,-99.9,29.99,North,32767,-999.0,0.0,255,-99.99,,,0.00,Wunderground v.1.15,2013-06-12 09:20:00,
2013-06-12 05:25:00,-999.9,-99.9,29.99,North,32767,-999.0,0.0,255,-99.99,,,0.00,Wunderground v.1.15,2013-06-12 09:25:00,
2013-06-12 05:30:00,-999.9,-99.9,29.99,North,32767,-999.0,0.0,255,-99.99,,,0.00,Wunderground v.1.15,2013-06-12 09:30:00,
2013-06-12 05:35:00,-999.9,-99.9,29.99,North,32767,-999.0,0.0,255,-99.99,,,0.00,Wunderground v.1.15,2013-06-12 09:35:00,
2013-06-12 05:40:00,-999.9,-99.9,29.99,North,32767,-999.0,0.0,255,-99.99,,,0.00,Wunderground v.1.15,2013-06-12 09:40:00,
2013-06-12 05:45:00,-999.9,-99.9,29.99,North,32767,-999.0,0.0,255,-99.99,,,0.00,Wunderground v.1.15,2013-06-12 09:45:00,
2013-06-12 05:50:00,-999.9,-99.9,29.99,North,32767,-999.0,0.0,255,-99.99,,,0.00,Wunderground v.1.15,2013-06-12 09:50:00,
2013-06-12 05:55:00,-999.9,-99.9,29.99,North,32767,-999.0,0.0,255,-99.99,,,0.00,Wunderground v.1.15,2013-06-12 09:55:00,
2013-06-12 06:00:00,-999.9,-99.9,29.99,North,32767,-999.0,0.0,255,-99.99,,,0.00,Wunderground v.1.15,2013-06-12 10:00:00,
2013-06-12 06:05:00,-999.9,-99.9,29.99,North,32767,-999.0,0.0,255,-99.99,,,0.00,Wunderground v.1.15,2013-06-12 10:05:00,
2013-06-12 06:15:00,-999.9,-99.9,30.00,North,32767,-999.0,0.0,255,-99.99,,,0.00,Wunderground v.1.15,2013-06-12 10:15:00,
2013-06-12 06:20:00,-999.9,-99.9,29.99,North,32767,-999.0,0.0,255,-99.99,,,0.00,Wunderground v.1.15,2013-06-12 10:20:00,
2013-06-12 06:25:00,-999.9,-99.9,30.00,North,32767,-999.0,0.0,255,-99.99,,,0.00,Wunderground v.1.15,2013-06-12 10:25:00,
2013-06-12 06:30:00,-999.9,-99.9,30.00,North,32767,-999.0,0.0,255,-99.99,,,0.00,Wunderground v.1.15,2013-06-12 10:30:00,
2013-06-12 06:35:00,-999.9,-99.9,30.00,North,32767,-999.0,0.0,255,-99.99,,,0.00,Wunderground v.1.15,2013-06-12 10:35:00,
2013-06-12 06:40:00,-999.9,-99.9,30.00,North,32767,-999.0,0.0,255,-99.99,,,0.00,Wunderground v.1.15,2013-06-12 10:40:00,
2013-06-12 06:45:00,-999.9,-99.9,30.00,North,32767,-999.0,0.0,255,-99.99,,,0.00,Wunderground v.1.15,2013-06-12 10:45:00,
2013-06-12 06:50:00,-999.9,-99.9,30.00,North,32767,-999.0,0.0,255,-99.99,,,0.00,Wunderground v.1.15,2013-06-12 10:50:00,
2013-06-12 06:55:00,-999.9,-99.9,30.00,North,32767,-999.0,0.0,255,-99.99,,,0.00,Wunderground v.1.15,2013-06-12 10:55:00,
2013-06-12 07:00:00,-999.9,-99.9,30.00,North,32767,-999.0,0.0,255,-99.99,,,0.00,Wunderground v.1.15,2013-06-12 11:00:00,
2013-06-12 07:05:00,-999.9,-99.9,30.00,North,32767,-999.0,0.0,255,-99.99,,,0.00,Wunderground v.1.15,2013-06-12 11:05:00,
2013-06-12 07:15:00,-999.9,-99.9,30.01,North,32767,-999.0,0.0,255,-99.99,,,0.00,Wunderground v.1.15,2013-06-12 11:15:00,
2013-06-12 07:20:00,-999.9,-99.9,30.01,North,32767,-999.0,0.0,255,-99.99,,,0.00,Wunderground v.1.15,2013-06-12 11:20:00,
2013-06-12 07:25:00,-999.9,-99.9,30.01,North,32767,-999.0,0.0,255,-99.99,,,0.00,Wunderground v.1.15,2013-06-12 11:25:00,
2013-06-12 07:35:00,-999.9,-99.9,30.01,North,32767,-999.0,0.0,255,-99.99,,,0.00,Wunderground v.1.15,2013-06-12 11:35:00,
2013-06-12 07:45:00,-999.9,-99.9,30.01,North,32767,-999.0,0.0,255,-99.99,,,0.00,Wunderground v.1.15,2013-06-12 11:45:00,
2013-06-12 07:50:00,-999.9,-99.9,30.02,North,32767,-999.0,0.0,255,-99.99,,,0.00,Wunderground v.1.15,2013-06-12 11:50:00,
2013-06-12 07:55:00,-999.9,-99.9,30.02,North,32767,-999.0,0.0,255,-99.99,,,0.00,Wunderground v.1.15,2013-06-12 11:55:00,
2013-06-12 08:00:00,-999.9,-99.9,30.02,North,32767,-999.0,0.0,255,-99.99,,,0.00,Wunderground v.1.15,2013-06-12 12:00:00,
2013-06-12 08:05:00,-999.9,-99.9,30.02,North,32767,-999.0,0.0,255,-99.99,,,0.00,Wunderground v.1.15,2013-06-12 12:05:00,
2013-06-12 08:10:00,-999.9,-99.9,30.02,North,32767,-999.0,0.0,255,-99.99,,,0.00,Wunderground v.1.15,2013-06-12 12:10:00,
2013-06-12 08:20:00,-999.9,-99.9,30.03,North,32767,-999.0,0.0,255,-99.99,,,0.00,Wunderground v.1.15,2013-06-12 12:20:00,
2013-06-12 08:25:00,-999.9,-99.9,30.03,North,32767,-999.0,0.0,255,-99.99,,,0.00,Wunderground v.1.15,2013-06-12 12:25:00,
2013-06-12 08:30:00,-999.9,-99.9,30.03,North,32767,-999.0,0.0,255,-99.99,,,0.00,Wunderground v.1.15,2013-06-12 12:30:00,
2013-06-12 08:35:00,-999.9,-99.9,30.03,North,32767,-999.0,0.0,255,-99.99,,,0.00,Wunderground v.1.15,2013-06-12 12:35:00,
2013-06-12 08:40:00,-999.9,-99.9,30.03,North,32767,-999.0,0.0,255,-99.99,,,0.00,Wunderground v.1.15,2013-06-12 12:40:00,
2013-06-12 08:45:00,-999.9,-99.9,30.03,North,32767,-999.0,0.0,255,-99.99,,,0.00,Wunderground v.1.15,2013-06-12 12:45:00,
2013-06-12 08:55:00,-999.9,-99.9,30.04,North,32767,-999.0,0.0,255,-99.99,,,0.00,Wunderground v.1.15,2013-06-12 12:55:00,
2013-06-12 09:00:00,-999.9,-99.9,30.04,North,32767,-999.0,0.0,255,-99.99,,,0.00,Wunderground v.1.15,2013-06-12 13:00:00,
2013-06-12 09:05:00,-999.9,-99.9,30.04,North,32767,-999.0,0.0,255,-99.99,,,0.00,Wunderground v.1.15,2013-06-12 13:05:00,
2013-06-12 09:10:00,-999.9,-99.9,30.03,North,32767,-999.0,0.0,255,-99.99,,,0.00,Wunderground v.1.15,2013-06-12 13:10:00,
2013-06-12 09:15:00,-999.9,-99.9,30.03,North,32767,-999.0,0.0,255,-99.99,,,0.00,Wunderground v.1.15,2013-06-12 13:15:00,
2013-06-12 09:20:00,-999.9,-99.9,30.03,North,32767,-999.0,0.0,255,-99.99,,,0.00,Wunderground v.1.15,2013-06-12 13:20:00,
2013-06-12 09:25:00,-999.9,-99.9,30.04,North,32767,-999.0,0.0,255,-99.99,,,0.00,Wunderground v.1.15,2013-06-12 13:25:00,
2013-06-12 09:30:00,-999.9,-99.9,30.03,North,32767,-999.0,0.0,255,-99.99,,,0.00,Wunderground v.1.15,2013-06-12 13:30:00,
2013-06-12 09:35:00,-999.9,-99.9,30.03,North,32767,-999.0,0.0,255,-99.99,,,0.00,Wunderground v.1.15,2013-06-12 13:35:00,
2013-06-12 09:40:00,-999.9,-99.9,30.04,North,32767,-999.0,0.0,255,-99.99,,,0.00,Wunderground v.1.15,2013-06-12 13:40:00,
2013-06-12 09:45:00,-999.9,-99.9,30.03,North,32767,-999.0,0.0,255,-99.99,,,0.00,Wunderground v.1.15,2013-06-12 13:45:00,
2013-06-12 09:50:00,-999.9,-99.9,30.03,North,32767,-999.0,0.0,255,-99.99,,,0.00,Wunderground v.1.15,2013-06-12 13:50:00,
2013-06-12 09:55:00,-999.9,-99.9,30.03,North,32767,-999.0,0.0,255,-99.99,,,0.00,Wunderground v.1.15,2013-06-12 13:55:00,
2013-06-12 10:05:00,-999.9,-99.9,30.03,North,32767,-999.0,0.0,255,-99.99,,,0.00,Wunderground v.1.15,2013-06-12 14:05:00,
2013-06-12 10:15:00,-999.9,-99.9,30.02,North,32767,-999.0,0.0,255,-99.99,,,0.00,Wunderground v.1.15,2013-06-12 14:15:00,
2013-06-12 10:20:00,-999.9,-99.9,30.02,North,32767,-999.0,0.0,255,-99.99,,,0.00,Wunderground v.1.15,2013-06-12 14:20:00,
2013-06-12 10:25:00,-999.9,-99.9,30.02,North,32767,-999.0,0.0,255,-99.99,,,0.00,Wunderground v.1.15,2013-06-12 14:25:00,
2013-06-12 10:30:00,-999.9,-99.9,30.02,North,32767,-999.0,0.0,255,-99.99,,,0.00,Wunderground v.1.15,2013-06-12 14:30:00,
2013-06-12 10:35:00,-999.9,-99.9,30.03,North,32767,-999.0,0.0,255,-99.99,,,0.00,Wunderground v.1.15,2013-06-12 14:35:00,
2013-06-12 10:40:00,-999.9,-99.9,30.03,North,32767,-999.0,0.0,255,-99.99,,,0.00,Wunderground v.1.15,2013-06-12 14:40:00,
2013-06-12 10:45:00,-999.9,-99.9,30.03,North,32767,-999.0,0.0,255,-99.99,,,0.00,Wunderground v.1.15,2013-06-12 14:45:00,
2013-06-12 10:50:00,-999.9,-99.9,30.03,North,32767,-999.0,0.0,255,-99.99,,,0.00,Wunderground v.1.15,2013-06-12 14:50:00,
2013-06-12 10:55:00,-999.9,-99.9,30.03,North,32767,-999.0,0.0,255,-99.99,,,0.00,Wunderground v.1.15,2013-06-12 14:55:00,
2013-06-12 11:00:00,-999.9,-99.9,30.03,North,32767,-999.0,0.0,255,-99.99,,,0.00,Wunderground v.1.15,2013-06-12 15:00:00,
2013-06-12 11:05:00,-999.9,-99.9,30.03,North,32767,-999.0,0.0,255,-99.99,,,0.00,Wunderground v.1.15,2013-06-12 15:05:00,
2013-06-12 11:10:00,-999.9,-99.9,30.03,North,32767,-999.0,0.0,255,-99.99,,,0.00,Wunderground v.1.15,2013-06-12 15:10:00,
2013-06-12 11:15:00,-999.9,-99.9,30.03,North,32767,-999.0,0.0,255,-99.99,,,0.00,Wunderground v.1.15,2013-06-12 15:15:00,
2013-06-12 11:25:00,-999.9,-99.9,30.03,North,32767,-999.0,0.0,255,-99.99,,,0.00,Wunderground v.1.15,2013-06-12 15:25:00,
2013-06-12 11:30:00,-999.9,-99.9,30.03,North,32767,-999.0,0.0,255,-99.99,,,0.00,Wunderground v.1.15,2013-06-12 15:30:00,
2013-06-12 11:35:00,-999.9,-99.9,30.03,North,32767,-999.0,0.0,255,-99.99,,,0.00,Wunderground v.1.15,2013-06-12 15:35:00,
2013-06-12 11:40:00,-999.9,-99.9,30.03,North,32767,-999.0,0.0,255,-99.99,,,0.00,Wunderground v.1.15,2013-06-12 15:40:00,
2013-06-12 11:45:00,-999.9,-99.9,30.03,North,32767,-999.0,0.0,255,-99.99,,,0.00,Wunderground v.1.15,2013-06-12 15:45:00,
2013-06-12 11:50:00,-999.9,-99.9,30.03,North,32767,-999.0,0.0,255,-99.99,,,0.00,Wunderground v.1.15,2013-06-12 15:50:00,
2013-06-12 11:55:00,-999.9,-99.9,30.03,North,32767,-999.0,0.0,255,-99.99,,,0.00,Wunderground v.1.15,2013-06-12 15:55:00,
2013-06-12 12:00:00,-999.9,-99.9,30.03,North,32767,-999.0,0.0,255,-99.99,,,0.00,Wunderground v.1.15,2013-06-12 16:00:00,
2013-06-12 12:05:00,-999.9,-99.9,30.02,North,32767,-999.0,0.0,255,-99.99,,,0.00,Wunderground v.1.15,2013-06-12 16:05:00,
2013-06-12 12:15:00,-999.9,-99.9,30.02,North,32767,-999.0,0.0,255,-99.99,,,0.00,Wunderground v.1.15,2013-06-12 16:15:00,
2013-06-12 12:20:00,-999.9,-99.9,30.02,North,32767,-999.0,0.0,255,-99.99,,,0.00,Wunderground v.1.15,2013-06-12 16:20:00,
2013-06-12 12:25:00,-999.9,-99.9,30.03,North,32767,-999.0,0.0,255,-99.99,,,0.00,Wunderground v.1.15,2013-06-12 16:25:00,
2013-06-12 12:30:00,81.8,73.9,30.02,NNE,20,0.0,0.0,77,0.00,,,0.00,Wunderground v.1.15,2013-06-12 16:30:00,
2013-06-12 12:35:00,82.2,72.3,30.02,North,355,0.0,0.0,72,0.00,,,0.00,Wunderground v.1.15,2013-06-12 16:35:00,
2013-06-12 12:40:00,82.6,71.4,30.02,NW,311,0.0,0.0,69,0.00,,,0.00,Wunderground v.1.15,2013-06-12 16:40:00,
2013-06-12 12:45:00,82.9,72.5,30.02,SE,125,0.0,0.0,71,0.00,,,0.00,Wunderground v.1.15,2013-06-12 16:45:00,
2013-06-12 12:50:00,82.9,72.5,30.02,East,92,0.0,1.0,71,0.00,,,0.00,Wunderground v.1.15,2013-06-12 16:50:00,
2013-06-12 12:55:00,82.7,72.3,30.01,East,92,0.0,1.0,71,0.00,,,0.00,Wunderground v.1.15,2013-06-12 16:55:00,
2013-06-12 13:00:00,82.6,72.2,30.01,East,92,0.0,0.0,71,0.00,,,0.00,Wunderground v.1.15,2013-06-12 17:00:00,
2013-06-12 13:05:00,82.7,72.3,30.01,East,92,0.0,0.0,71,0.00,,,0.00,Wunderground v.1.15,2013-06-12 17:05:00,
2013-06-12 13:10:00,82.8,73.3,30.00,East,92,0.0,1.0,73,0.00,,,0.00,Wunderground v.1.15,2013-06-12 17:10:00,
2013-06-12 13:15:00,82.9,72.9,30.00,East,92,0.0,1.0,72,0.00,,,0.00,Wunderground v.1.15,2013-06-12 17:15:00,
2013-06-12 13:20:00,83.2,72.4,30.00,ESE,116,0.0,0.0,70,0.00,,,0.00,Wunderground v.1.15,2013-06-12 17:20:00,
2013-06-12 13:25:00,83.5,72.7,30.00,ESE,116,0.0,0.0,70,0.00,,,0.00,Wunderground v.1.15,2013-06-12 17:25:00,
2013-06-12 13:30:00,83.6,73.2,30.00,ESE,116,0.0,0.0,71,0.00,,,0.00,Wunderground v.1.15,2013-06-12 17:30:00,
2013-06-12 13:35:00,84.0,72.7,29.99,ESE,116,0.0,0.0,69,0.00,,,0.00,Wunderground v.1.15,2013-06-12 17:35:00,
2013-06-12 13:40:00,84.3,72.6,29.99,ESE,116,0.0,0.0,68,0.00,,,0.00,Wunderground v.1.15,2013-06-12 17:40:00,
2013-06-12 13:45:00,84.6,73.7,29.99,ESE,116,0.0,0.0,70,0.00,,,0.00,Wunderground v.1.15,2013-06-12 17:45:00,
2013-06-12 13:50:00,85.1,75.1,29.99,ESE,116,0.0,0.0,72,0.00,,,0.00,Wunderground v.1.15,2013-06-12 17:50:00,
2013-06-12 13:55:00,85.0,71.5,29.98,WNW,301,1.0,1.0,64,0.00,,,0.00,Wunderground v.1.15,2013-06-12 17:55:00,
2013-06-12 14:00:00,85.4,72.3,29.98,NNW,343,1.0,1.0,65,0.00,,,0.00,Wunderground v.1.15,2013-06-12 18:00:00,
2013-06-12 14:05:00,85.9,75.0,29.98,NNW,343,0.0,1.0,70,0.00,,,0.00,Wunderground v.1.15,2013-06-12 18:05:00,
2013-06-12 14:15:00,85.9,72.3,29.98,NW,313,0.0,0.0,64,0.00,,,0.00,Wunderground v.1.15,2013-06-12 18:15:00,
2013-06-12 14:20:00,-999.9,-99.9,29.98,North,32767,-999.0,0.0,255,-99.99,,,0.00,Wunderground v.1.15,2013-06-12 18:20:00,
2013-06-12 14:25:00,-999.9,-99.9,29.98,North,32767,-999.0,0.0,255,-99.99,,,0.00,Wunderground v.1.15,2013-06-12 18:25:00,
2013-06-12 14:30:00,-999.9,-99.9,29.98,North,32767,-999.0,0.0,255,-99.99,,,0.00,Wunderground v.1.15,2013-06-12 18:30:00,
2013-06-12 14:35:00,-999.9,-99.9,29.98,North,32767,-999.0,0.0,255,-99.99,,,0.00,Wunderground v.1.15,2013-06-12 18:35:00,
2013-06-12 14:40:00,-999.9,-99.9,29.98,North,32767,-999.0,0.0,255,-99.99,,,0.00,Wunderground v.1.15,2013-06-12 18:40:00,
2013-06-12 14:45:00,-999.9,-99.9,29.98,North,32767,-999.0,0.0,255,-99.99,,,0.00,Wunderground v.1.15,2013-06-12 18:45:00,
2013-06-12 14:50:00,-999.9,-99.9,29.98,North,32767,-999.0,0.0,255,-99.99,,,0.00,Wunderground v.1.15,2013-06-12 18:50:00,
2013-06-12 14:55:00,-999.9,-99.9,29.98,North,32767,-999.0,0.0,255,-99.99,,,0.00,Wunderground v.1.15,2013-06-12 18:55:00,
2013-06-12 15:00:00,-999.9,-99.9,29.98,North,32767,-999.0,0.0,255,-99.99,,,0.00,Wunderground v.1.15,2013-06-12 19:00:00,
2013-06-12 15:05:00,-999.9,-99.9,29.98,North,32767,-999.0,0.0,255,-99.99,,,0.00,Wunderground v.1.15,2013-06-12 19:05:00,
2013-06-12 15:10:00,-999.9,-99.9,29.98,North,32767,-999.0,0.0,255,-99.99,,,0.00,Wunderground v.1.15,2013-06-12 19:10:00,
2013-06-12 15:15:00,-999.9,-99.9,29.98,North,32767,-999.0,0.0,255,-99.99,,,0.00,Wunderground v.1.15,2013-06-12 19:15:00,
2013-06-12 15:20:00,-999.9,-99.9,29.99,North,32767,-999.0,0.0,255,-99.99,,,0.00,Wunderground v.1.15,2013-06-12 19:20:00,
2013-06-12 15:25:00,-999.9,-99.9,29.99,North,32767,-999.0,0.0,255,-99.99,,,0.00,Wunderground v.1.15,2013-06-12 19:25:00,
2013-06-12 15:30:00,-999.9,-99.9,29.98,North,32767,-999.0,0.0,255,-99.99,,,0.00,Wunderground v.1.15,2013-06-12 19:30:00,
2013-06-12 15:35:00,-999.9,-99.9,29.98,North,32767,-999.0,0.0,255,-99.99,,,0.00,Wunderground v.1.15,2013-06-12 19:35:00,
2013-06-12 15:40:00,-999.9,-99.9,29.98,North,32767,-999.0,0.0,255,-99.99,,,0.00,Wunderground v.1.15,2013-06-12 19:40:00,
2013-06-12 15:45:00,-999.9,-99.9,29.98,North,32767,-999.0,0.0,255,-99.99,,,0.00,Wunderground v.1.15,2013-06-12 19:45:00,
2013-06-12 15:50:00,-999.9,-99.9,29.98,North,32767,-999.0,0.0,255,-99.99,,,0.00,Wunderground v.1.15,2013-06-12 19:50:00,
2013-06-12 15:55:00,-999.9,-99.9,29.98,North,32767,-999.0,0.0,255,-99.99,,,0.00,Wunderground v.1.15,2013-06-12 19:55:00,
2013-06-12 16:00:00,-999.9,-99.9,29.98,North,32767,-999.0,0.0,255,-99.99,,,0.00,Wunderground v.1.15,2013-06-12 20:00:00,
2013-06-12 16:05:00,-999.9,-99.9,29.98,North,32767,-999.0,0.0,255,-99.99,,,0.00,Wunderground v.1.15,2013-06-12 20:05:00,
2013-06-12 16:15:00,-999.9,-99.9,29.97,North,32767,-999.0,0.0,255,-99.99,,,0.00,Wunderground v.1.15,2013-06-12 20:15:00,
2013-06-12 16:20:00,-999.9,-99.9,29.97,North,32767,-999.0,0.0,255,-99.99,,,0.00,Wunderground v.1.15,2013-06-12 20:20:00,
2013-06-12 16:25:00,-999.9,-99.9,29.97,North,32767,-999.0,0.0,255,-99.99,,,0.00,Wunderground v.1.15,2013-06-12 20:25:00,
2013-06-12 16:30:00,-999.9,-99.9,29.97,North,32767,-999.0,0.0,255,-99.99,,,0.00,Wunderground v.1.15,2013-06-12 20:30:00,
2013-06-12 16:35:00,-999.9,-99.9,29.97,North,32767,-999.0,0.0,255,-99.99,,,0.00,Wunderground v.1.15,2013-06-12 20:35:00,
2013-06-12 16:40:00,-999.9,-99.9,29.97,North,32767,-999.0,0.0,255,-99.99,,,0.00,Wunderground v.1.15,2013-06-12 20:40:00,
2013-06-12 16:45:00,-999.9,-99.9,29.97,North,32767,-999.0,0.0,255,-99.99,,,0.00,Wunderground v.1.15,2013-06-12 20:45:00,
2013-06-12 16:50:00,-999.9,-99.9,29.97,North,32767,-999.0,0.0,255,-99.99,,,0.00,Wunderground v.1.15,2013-06-12 20:50:00,
2013-06-12 16:55:00,-999.9,-99.9,29.97,North,32767,-999.0,0.0,255,-99.99,,,0.00,Wunderground v.1.15,2013-06-12 20:55:00,
2013-06-12 17:00:00,-999.9,-99.9,29.97,North,32767,-999.0,0.0,255,-99.99,,,0.00,Wunderground v.1.15,2013-06-12 21:00:00,
2013-06-12 17:05:00,-999.9,-99.9,29.97,North,32767,-999.0,0.0,255,-99.99,,,0.00,Wunderground v.1.15,2013-06-12 21:05:00,
2013-06-12 17:15:00,-999.9,-99.9,29.97,North,32767,-999.0,0.0,255,-99.99,,,0.00,Wunderground v.1.15,2013-06-12 21:15:00,
2013-06-12 17:19:00,-999.9,-99.9,29.96,North,32767,-999.0,0.0,255,-99.99,,,0.00,Wunderground v.1.15,2013-06-12 21:19:00,
2013-06-12 17:24:00,-999.9,-99.9,29.96,North,32767,-999.0,0.0,255,-99.99,,,0.00,Wunderground v.1.15,2013-06-12 21:24:00,
2013-06-12 17:30:00,-999.9,-99.9,29.96,North,32767,-999.0,0.0,255,-99.99,,,0.00,Wunderground v.1.15,2013-06-12 21:30:00,
2013-06-12 17:35:00,-999.9,-99.9,29.96,North,32767,-999.0,0.0,255,-99.99,,,0.00,Wunderground v.1.15,2013-06-12 21:35:00,
2013-06-12 17:40:00,-999.9,-99.9,29.96,North,32767,-999.0,0.0,255,-99.99,,,0.00,Wunderground v.1.15,2013-06-12 21:40:00,
2013-06-12 17:45:00,-999.9,-99.9,29.96,North,32767,-999.0,0.0,255,-99.99,,,0.00,Wunderground v.1.15,2013-06-12 21:45:00,
2013-06-12 17:50:00,-999.9,-99.9,29.96,North,32767,-999.0,0.0,255,-99.99,,,0.00,Wunderground v.1.15,2013-06-12 21:50:00,
2013-06-12 17:55:00,-999.9,-99.9,29.96,North,32767,-999.0,0.0,255,-99.99,,,0.00,Wunderground v.1.15,2013-06-12 21:55:00,
2013-06-12 18:00:00,-999.9,-99.9,29.96,North,32767,-999.0,0.0,255,-99.99,,,0.00,Wunderground v.1.15,2013-06-12 22:00:00,
2013-06-12 18:05:00,-999.9,-99.9,29.96,North,32767,-999.0,0.0,255,-99.99,,,0.00,Wunderground v.1.15,2013-06-12 22:05:00,
2013-06-12 18:10:00,-999.9,-99.9,29.96,North,32767,-999.0,0.0,255,-99.99,,,0.00,Wunderground v.1.15,2013-06-12 22:10:00,
2013-06-12 18:15:00,-999.9,-99.9,29.96,North,32767,-999.0,0.0,255,-99.99,,,0.00,Wunderground v.1.15,2013-06-12 22:15:00,
2013-06-12 18:20:00,-999.9,-99.9,29.95,North,32767,-999.0,0.0,255,-99.99,,,0.00,Wunderground v.1.15,2013-06-12 22:20:00,
2013-06-12 18:25:00,-999.9,-99.9,29.95,North,32767,-999.0,0.0,255,-99.99,,,0.00,Wunderground v.1.15,2013-06-12 22:25:00,
2013-06-12 18:30:00,-999.9,-99.9,29.95,North,32767,-999.0,0.0,255,-99.99,,,0.00,Wunderground v.1.15,2013-06-12 22:30:00,
2013-06-12 18:35:00,-999.9,-99.9,29.95,North,32767,-999.0,0.0,255,-99.99,,,0.00,Wunderground v.1.15,2013-06-12 22:35:00,
2013-06-12 18:40:00,-999.9,-99.9,29.96,North,32767,-999.0,0.0,255,-99.99,,,0.00,Wunderground v.1.15,2013-06-12 22:40:00,
2013-06-12 18:45:00,-999.9,-99.9,29.96,North,32767,-999.0,0.0,255,-99.99,,,0.00,Wunderground v.1.15,2013-06-12 22:45:00,
2013-06-12 18:50:00,-999.9,-99.9,29.96,North,32767,-999.0,0.0,255,-99.99,,,0.00,Wunderground v.1.15,2013-06-12 22:50:00,
2013-06-12 18:55:00,-999.9,-99.9,29.97,North,32767,-999.0,0.0,255,-99.99,,,0.00,Wunderground v.1.15,2013-06-12 22:55:00,
2013-06-12 18:59:00,-999.9,-99.9,29.97,North,32767,-999.0,0.0,255,-99.99,,,0.00,Wunderground v.1.15,2013-06-12 22:59:00,
2013-06-12 19:05:00,-999.9,-99.9,29.97,North,32767,-999.0,0.0,255,-99.99,,,0.00,Wunderground v.1.15,2013-06-12 23:05:00,
2013-06-12 19:10:00,-999.9,-99.9,29.97,North,32767,-999.0,0.0,255,-99.99,,,0.00,Wunderground v.1.15,2013-06-12 23:10:00,
2013-06-12 19:15:00,-999.9,-99.9,29.97,North,32767,-999.0,0.0,255,-99.99,,,0.00,Wunderground v.1.15,2013-06-12 23:15:00,
2013-06-12 19:20:00,-999.9,-99.9,29.97,North,32767,-999.0,0.0,255,-99.99,,,0.00,Wunderground v.1.15,2013-06-12 23:20:00,
2013-06-12 19:25:00,-999.9,-99.9,29.97,North,32767,-999.0,0.0,255,-99.99,,,0.00,Wunderground v.1.15,2013-06-12 23:25:00,
2013-06-12 19:30:00,-999.9,-99.9,29.97,North,32767,-999.0,0.0,255,-99.99,,,0.00,Wunderground v.1.15,2013-06-12 23:30:00,
2013-06-12 19:35:00,-999.9,-99.9,29.97,North,32767,-999.0,0.0,255,-99.99,,,0.00,Wunderground v.1.15,2013-06-12 23:35:00,
2013-06-12 19:40:00,-999.9,-99.9,29.97,North,32767,-999.0,0.0,255,-99.99,,,0.00,Wunderground v.1.15,2013-06-12 23:40:00,
2013-06-12 19:45:00,-999.9,-99.9,29.97,North,32767,-999.0,0.0,255,-99.99,,,0.00,Wunderground v.1.15,2013-06-12 23:45:00,
2013-06-12 19:50:00,-999.9,-99.9,29.97,North,32767,-999.0,0.0,255,-99.99,,,0.00,Wunderground v.1.15,2013-06-12 23:50:00,
2013-06-12 19:55:00,-999.9,-99.9,29.97,North,32767,-999.0,0.0,255,-99.99,,,0.00,Wunderground v.1.15,2013-06-12 23:55:00,
2013-06-12 20:00:00,-999.9,-99.9,29.97,North,32767,-999.0,0.0,255,-99.99,,,0.00,Wunderground v.1.15,2013-06-13 00:00:00,
2013-06-12 20:05:00,-999.9,-99.9,29.97,North,32767,-999.0,0.0,255,-99.99,,,0.00,Wunderground v.1.15,2013-06-13 00:05:00,
2013-06-12 20:10:00,-999.9,-99.9,29.97,North,32767,-999.0,0.0,255,-99.99,,,0.00,Wunderground v.1.15,2013-06-13 00:10:00,
2013-06-12 20:14:00,-999.9,-99.9,29.97,North,32767,-999.0,0.0,255,-99.99,,,0.00,Wunderground v.1.15,2013-06-13 00:14:00,
2013-06-12 20:20:00,-999.9,-99.9,29.97,North,32767,-999.0,0.0,255,-99.99,,,0.00,Wunderground v.1.15,2013-06-13 00:20:00,
2013-06-12 20:25:00,-999.9,-99.9,29.97,North,32767,-999.0,0.0,255,-99.99,,,0.00,Wunderground v.1.15,2013-06-13 00:25:00,
2013-06-12 20:30:00,-999.9,-99.9,29.97,North,32767,-999.0,0.0,255,-99.99,,,0.00,Wunderground v.1.15,2013-06-13 00:30:00,
2013-06-12 20:35:00,-999.9,-99.9,29.97,North,32767,-999.0,0.0,255,-99.99,,,0.00,Wunderground v.1.15,2013-06-13 00:35:00,
2013-06-12 20:40:00,-999.9,-99.9,29.97,North,32767,-999.0,0.0,255,-99.99,,,0.00,Wunderground v.1.15,2013-06-13 00:40:00,
2013-06-12 20:45:00,-999.9,-99.9,29.97,North,32767,-999.0,0.0,255,-99.99,,,0.00,Wunderground v.1.15,2013-06-13 00:45:00,
2013-06-12 20:50:00,-999.9,-99.9,29.97,North,32767,-999.0,0.0,255,-99.99,,,0.00,Wunderground v.1.15,2013-06-13 00:50:00,
2013-06-12 20:55:00,-999.9,-99.9,29.97,North,32767,-999.0,0.0,255,-99.99,,,0.00,Wunderground v.1.15,2013-06-13 00:55:00,
2013-06-12 21:00:00,-999.9,-99.9,29.97,North,32767,-999.0,0.0,255,-99.99,,,0.00,Wunderground v.1.15,2013-06-13 01:00:00,
2013-06-12 21:05:00,-999.9,-99.9,29.97,North,32767,-999.0,0.0,255,-99.99,,,0.00,Wunderground v.1.15,2013-06-13 01:05:00,
2013-06-12 21:10:00,-999.9,-99.9,29.97,North,32767,-999.0,0.0,255,-99.99,,,0.00,Wunderground v.1.15,2013-06-13 01:10:00,
2013-06-12 21:15:00,-999.9,-99.9,29.97,North,32767,-999.0,0.0,255,-99.99,,,0.00,Wunderground v.1.15,2013-06-13 01:15:00,
2013-06-12 21:20:00,-999.9,-99.9,29.97,North,32767,-999.0,0.0,255,-99.99,,,0.00,Wunderground v.1.15,2013-06-13 01:20:00,
2013-06-12 21:25:00,-999.9,-99.9,29.97,North,32767,-999.0,0.0,255,-99.99,,,0.00,Wunderground v.1.15,2013-06-13 01:25:00,
2013-06-12 21:30:00,-999.9,-99.9,29.97,North,32767,-999.0,0.0,255,-99.99,,,0.00,Wunderground v.1.15,2013-06-13 01:30:00,
2013-06-12 21:35:00,-999.9,-99.9,29.97,North,32767,-999.0,0.0,255,-99.99,,,0.00,Wunderground v.1.15,2013-06-13 01:35:00,
2013-06-12 21:40:00,-999.9,-99.9,29.97,North,32767,-999.0,0.0,255,-99.99,,,0.00,Wunderground v.1.15,2013-06-13 01:40:00,
2013-06-12 21:45:00,-999.9,-99.9,29.97,North,32767,-999.0,0.0,255,-99.99,,,0.00,Wunderground v.1.15,2013-06-13 01:45:00,
2013-06-12 21:50:00,-999.9,-99.9,29.97,North,32767,-999.0,0.0,255,-99.99,,,0.00,Wunderground v.1.15,2013-06-13 01:50:00,
2013-06-12 21:55:00,-999.9,-99.9,29.97,North,32767,-999.0,0.0,255,-99.99,,,0.00,Wunderground v.1.15,2013-06-13 01:55:00,
2013-06-12 22:00:00,-999.9,-99.9,29.98,North,32767,-999.0,0.0,255,-99.99,,,0.00,Wunderground v.1.15,2013-06-13 02:00:00,
2013-06-12 22:05:00,-999.9,-99.9,29.97,North,32767,-999.0,0.0,255,-99.99,,,0.00,Wunderground v.1.15,2013-06-13 02:05:00,
2013-06-12 22:10:00,-999.9,-99.9,29.97,North,32767,-999.0,0.0,255,-99.99,,,0.00,Wunderground v.1.15,2013-06-13 02:10:00,
2013-06-12 22:15:00,-999.9,-99.9,29.97,North,32767,-999.0,0.0,255,-99.99,,,0.00,Wunderground v.1.15,2013-06-13 02:15:00,
2013-06-12 22:20:00,-999.9,-99.9,29.97,North,32767,-999.0,0.0,255,-99.99,,,0.00,Wunderground v.1.15,2013-06-13 02:20:00,
2013-06-12 22:25:00,-999.9,-99.9,29.97,North,32767,-999.0,0.0,255,-99.99,,,0.00,Wunderground v.1.15,2013-06-13 02:25:00,
2013-06-12 22:30:00,-999.9,-99.9,29.98,North,32767,-999.0,0.0,255,-99.99,,,0.00,Wunderground v.1.15,2013-06-13 02:30:00,
2013-06-12 22:40:00,-999.9,-99.9,29.97,North,32767,-999.0,0.0,255,-99.99,,,0.00,Wunderground v.1.15,2013-06-13 02:40:00,
2013-06-12 22:45:00,-999.9,-99.9,29.97,North,32767,-999.0,0.0,255,-99.99,,,0.00,Wunderground v.1.15,2013-06-13 02:45:00,
2013-06-12 22:49:00,-999.9,-99.9,29.97,North,32767,-999.0,0.0,255,-99.99,,,0.00,Wunderground v.1.15,2013-06-13 02:49:00,
2013-06-12 22:55:00,-999.9,-99.9,29.97,North,32767,-999.0,0.0,255,-99.99,,,0.00,Wunderground v.1.15,2013-06-13 02:55:00,
2013-06-12 23:05:00,-999.9,-99.9,29.97,North,32767,-999.0,0.0,255,-99.99,,,0.00,Wunderground v.1.15,2013-06-13 03:05:00,
2013-06-12 23:10:00,-999.9,-99.9,29.96,North,32767,-999.0,0.0,255,-99.99,,,0.00,Wunderground v.1.15,2013-06-13 03:10:00,
2013-06-12 23:15:00,-999.9,-99.9,29.96,North,32767,-999.0,0.0,255,-99.99,,,0.00,Wunderground v.1.15,2013-06-13 03:15:00,
2013-06-12 23:20:00,-999.9,-99.9,29.97,North,32767,-999.0,0.0,255,-99.99,,,0.00,Wunderground v.1.15,2013-06-13 03:20:00,
2013-06-12 23:25:00,-999.9,-99.9,29.96,North,32767,-999.0,0.0,255,-99.99,,,0.00,Wunderground v.1.15,2013-06-13 03:25:00,
2013-06-12 23:30:00,-999.9,-99.9,29.96,North,32767,-999.0,0.0,255,-99.99,,,0.00,Wunderground v.1.15,2013-06-13 03:30:00,
2013-06-12 23:35:00,-999.9,-99.9,29.95,North,32767,-999.0,0.0,255,-99.99,,,0.00,Wunderground v.1.15,2013-06-13 03:35:00,
2013-06-12 23:40:00,-999.9,-99.9,29.95,North,32767,-999.0,0.0,255,-99.99,,,0.00,Wunderground v.1.15,2013-06-13 03:40:00,
2013-06-12 23:45:00,-999.9,-99.9,29.95,North,32767,-999.0,0.0,255,-99.99,,,0.00,Wunderground v.1.15,2013-06-13 03:45:00,
2013-06-12 23:50:00,-999.9,-99.9,29.95,North,32767,-999.0,0.0,255,-99.99,,,0.00,Wunderground v.1.15,2013-06-13 03:50:00,
2013-06-12 23:55:00,-999.9,-99.9,29.95,North,32767,-999.0,0.0,255,-99.99,,,0.00,Wunderground v.1.15,2013-06-13 03:55:00,